Denver, Tennessee
Current Conditions -  °F | °C
As of 2:15 PM on Thursday 29 Jan 2015 (Local Time) from KPVE Reporting Station
Few Clouds Few Clouds  
Wind Chill: 63°   Ceiling: Unl
Heat Index: 63°   Visibility: 10mi
Dew Point: 41°   Wind: 15mph
Humidity: 45%   Direction: 300°WNW
Pressure: 30.04"   Gusts: NA
Location:  36.0056°N, 87.9448°W
Report Text: KPVE 292015Z AUTO 30013KT 10SM FEW048 17/05 A3004 RMK
Loading
Personal Weather Stations






























Interactive Weather Map New forecast layout! Learn more

10-Day Weather Forecast

Advertisements
Track Severe Weather on mobile